createdAt,value
2023-03-06T00:01:33.422Z,6.95
2023-03-06T00:04:08.363Z,6.93
2023-03-06T00:06:41.707Z,7.57
2023-03-06T00:09:14.640Z,8.45
2023-03-06T00:11:47.442Z,8.15
2023-03-06T00:14:21.613Z,8.60
2023-03-06T00:16:55.270Z,9.85
2023-03-06T00:19:28.788Z,10.25
2023-03-06T00:22:03.124Z,11.27
2023-03-06T00:24:36.259Z,5.82
2023-03-06T00:27:09.338Z,10.27
2023-03-06T00:29:44.700Z,8.25
2023-03-06T00:32:18.461Z,8.13
2023-03-06T00:34:52.187Z,7.40
2023-03-06T00:37:25.945Z,8.45
2023-03-06T00:39:59.834Z,7.60
2023-03-06T00:42:32.699Z,6.53
2023-03-06T00:45:08.487Z,11.00
2023-03-06T00:47:41.689Z,8.20
2023-03-06T00:50:14.486Z,7.18
2023-03-06T00:52:47.343Z,8.05
2023-03-06T00:55:20.254Z,9.60
2023-03-06T00:57:53.098Z,9.07
2023-03-06T01:00:27.430Z,9.00
2023-03-06T01:03:00.615Z,12.07
2023-03-06T01:05:36.457Z,9.23
2023-03-06T01:08:09.316Z,7.53
2023-03-06T01:10:42.340Z,9.07
2023-03-06T01:13:15.470Z,8.38
2023-03-06T01:15:49.750Z,9.00
2023-03-06T01:18:22.561Z,8.60
2023-03-06T01:20:55.381Z,9.93
2023-03-06T01:23:28.203Z,9.07
2023-03-06T01:26:01.923Z,7.55
2023-03-06T01:28:35.361Z,7.57
2023-03-06T01:31:11.464Z,11.48
2023-03-06T01:33:44.251Z,7.85
2023-03-06T01:36:17.537Z,9.57
2023-03-06T01:38:51.371Z,7.38
2023-03-06T01:41:24.368Z,9.10
2023-03-06T01:43:57.187Z,9.25
2023-03-06T01:46:37.858Z,7.97
2023-03-06T01:49:19.400Z,8.50
2023-03-06T01:51:56.727Z,9.60
2023-03-06T01:54:33.567Z,7.95
2023-03-06T01:57:10.784Z,7.82
2023-03-06T01:59:44.020Z,10.32
2023-03-06T02:02:18.592Z,8.45
2023-03-06T02:04:51.628Z,8.73
2023-03-06T02:07:24.667Z,11.13
2023-03-06T02:09:57.469Z,8.00
2023-03-06T02:12:30.841Z,12.07
2023-03-06T02:15:04.308Z,9.93
2023-03-06T02:17:38.641Z,5.82
2023-03-06T02:20:14.653Z,7.60
2023-03-06T02:22:54.880Z,10.75
2023-03-06T02:25:39.584Z,6.85
2023-03-06T02:28:14.427Z,7.68
2023-03-06T02:30:49.155Z,8.23
2023-03-06T02:33:25.637Z,8.75
2023-03-06T02:36:00.996Z,9.63
2023-03-06T02:38:38.647Z,8.65
2023-03-06T02:41:13.220Z,11.55
2023-03-06T02:43:49.035Z,9.40
2023-03-06T02:46:22.017Z,9.43
2023-03-06T02:48:54.913Z,8.82
2023-03-06T02:51:28.293Z,9.07
2023-03-06T02:54:01.147Z,8.23
2023-03-06T02:56:35.361Z,9.65
2023-03-06T02:59:08.648Z,8.00
2023-03-06T03:01:41.634Z,7.63
2023-03-06T03:04:14.596Z,10.05
2023-03-06T03:06:47.429Z,10.85
2023-03-06T03:09:20.848Z,9.43
2023-03-06T03:11:55.122Z,8.65
2023-03-06T03:14:28.105Z,9.60
2023-03-06T03:17:02.398Z,9.75
2023-03-06T03:19:36.236Z,10.75
2023-03-06T03:22:09.130Z,8.20
2023-03-06T03:24:42.321Z,9.65
2023-03-06T03:27:17.382Z,9.93
2023-03-06T03:29:50.297Z,10.63
2023-03-06T03:32:23.278Z,10.23
2023-03-06T03:34:57.006Z,11.40
2023-03-06T03:37:31.430Z,11.05
2023-03-06T03:40:06.566Z,10.25
2023-03-06T03:42:41.237Z,9.40
2023-03-06T03:45:15.158Z,9.50
2023-03-06T03:47:48.088Z,8.82
2023-03-06T03:50:21.094Z,8.93
2023-03-06T03:52:54.072Z,9.13
2023-03-06T03:55:27.530Z,7.32
2023-03-06T03:58:05.517Z,8.90
2023-03-06T04:00:38.972Z,9.75
2023-03-06T04:03:17.957Z,7.82
2023-03-06T04:05:53.894Z,7.90
2023-03-06T04:08:27.294Z,9.38
2023-03-06T04:11:00.196Z,8.68
2023-03-06T04:13:35.839Z,11.20
2023-03-06T04:16:09.953Z,8.65
2023-03-06T04:18:44.635Z,14.55
2023-03-06T04:21:17.516Z,7.32
2023-03-06T04:23:50.713Z,8.88
2023-03-06T04:26:23.563Z,8.45
2023-03-06T04:28:58.443Z,8.77
2023-03-06T04:34:04.412Z,10.77
2023-03-06T04:36:37.699Z,11.75
2023-03-06T04:39:15.368Z,9.27
2023-03-06T04:41:48.173Z,9.27
2023-03-06T04:44:22.840Z,9.95
2023-03-06T04:46:55.635Z,12.20
2023-03-06T04:49:28.496Z,8.80
2023-03-06T04:52:01.704Z,11.55
2023-03-06T04:54:34.503Z,9.52
2023-03-06T04:57:07.334Z,10.57
2023-03-06T04:59:41.526Z,7.45
2023-03-06T05:02:14.414Z,14.82
2023-03-06T05:04:47.216Z,13.43
2023-03-06T05:07:20.047Z,11.88
2023-03-06T05:09:53.245Z,12.00
2023-03-06T05:12:26.201Z,8.43
2023-03-06T05:15:00.317Z,11.88
2023-03-06T05:17:33.465Z,6.57
2023-03-06T05:20:08.443Z,11.15
2023-03-06T05:25:14.396Z,12.15
2023-03-06T05:27:47.567Z,10.77
2023-03-06T05:30:23.135Z,14.70
2023-03-06T05:32:55.963Z,12.90
2023-03-06T05:35:29.381Z,14.73
2023-03-06T05:38:03.115Z,12.85
2023-03-06T05:40:35.907Z,14.60
2023-03-06T05:43:09.124Z,15.05
2023-03-06T05:45:43.318Z,15.15
2023-03-06T05:48:16.150Z,11.57
2023-03-06T05:50:56.131Z,12.35
2023-03-06T05:53:29.269Z,16.65
2023-03-06T05:56:04.241Z,13.73
2023-03-06T06:01:13.293Z,15.57
2023-03-06T06:03:46.418Z,13.13
2023-03-06T06:06:19.439Z,15.43
2023-03-06T06:08:52.229Z,14.10
2023-03-06T06:11:25.197Z,11.80
2023-03-06T06:13:57.967Z,13.48
2023-03-06T06:16:32.427Z,13.15
2023-03-06T06:19:05.434Z,13.57
2023-03-06T06:21:38.248Z,13.65
2023-03-06T06:24:11.039Z,13.05
2023-03-06T06:26:44.209Z,16.75
2023-03-06T06:29:19.979Z,11.98
2023-03-06T06:31:55.205Z,11.65
2023-03-06T06:34:30.399Z,10.38
2023-03-06T06:37:03.356Z,8.32
2023-03-06T06:39:36.327Z,10.32
2023-03-06T06:42:28.597Z,10.75
2023-03-06T06:45:02.827Z,13.25
2023-03-06T06:47:40.905Z,10.27
2023-03-06T06:50:14.904Z,13.95
2023-03-06T06:52:47.870Z,11.80
2023-03-06T06:55:20.716Z,13.05
2023-03-06T06:57:53.521Z,13.57
2023-03-06T07:00:27.030Z,10.23
2023-03-06T07:03:01.540Z,10.13
2023-03-06T07:05:34.503Z,14.20
2023-03-06T07:08:07.515Z,15.13
2023-03-06T07:10:40.349Z,17.13
2023-03-06T07:13:13.406Z,18.25
2023-03-06T07:15:46.221Z,15.75
2023-03-06T07:18:20.347Z,19.10
2023-03-06T07:20:54.635Z,14.87
2023-03-06T07:23:27.490Z,20.42
2023-03-06T07:26:00.354Z,18.30
2023-03-06T07:28:46.178Z,20.52
2023-03-06T07:31:27.379Z,14.55
2023-03-06T07:34:04.728Z,15.48
2023-03-06T07:36:39.520Z,18.92
2023-03-06T07:39:12.290Z,17.70
2023-03-06T07:41:45.315Z,17.35
2023-03-06T07:44:18.242Z,19.92
2023-03-06T07:46:51.161Z,20.13
2023-03-06T07:49:25.437Z,23.98
2023-03-06T07:51:59.199Z,17.55
2023-03-06T07:54:32.588Z,16.55
2023-03-06T07:57:05.377Z,17.60
2023-03-06T07:59:38.158Z,18.85
2023-03-06T08:02:11.794Z,22.00
2023-03-06T08:04:46.119Z,18.55
2023-03-06T08:07:19.029Z,25.13
2023-03-06T08:09:52.078Z,22.65
2023-03-06T08:12:24.876Z,21.80
2023-03-06T08:14:57.785Z,21.67
2023-03-06T08:17:30.961Z,16.58
2023-03-06T08:20:06.601Z,23.27
2023-03-06T08:22:39.758Z,25.48
2023-03-06T08:25:14.252Z,21.98
2023-03-06T08:27:47.770Z,23.98
2023-03-06T08:30:21.456Z,24.60
2023-03-06T08:32:54.300Z,22.88
2023-03-06T08:35:28.478Z,19.00
2023-03-06T08:38:01.255Z,23.75
2023-03-06T08:40:34.046Z,20.85
2023-03-06T08:43:11.308Z,21.27
2023-03-06T08:45:45.321Z,22.80
2023-03-06T08:48:18.644Z,23.05
2023-03-06T08:50:53.524Z,22.08
2023-03-06T08:53:41.720Z,20.85
2023-03-06T08:56:16.633Z,13.68
2023-03-06T08:58:50.125Z,17.40
2023-03-06T09:01:24.674Z,17.05
2023-03-06T09:03:59.890Z,15.70
2023-03-06T09:06:36.401Z,15.00
2023-03-06T09:09:09.793Z,12.90
2023-03-06T09:11:42.719Z,14.20
2023-03-06T09:14:15.549Z,13.90
2023-03-06T09:16:49.878Z,13.38
2023-03-06T09:19:23.765Z,17.80
2023-03-06T09:22:00.899Z,12.52
2023-03-06T09:24:34.193Z,14.95
2023-03-06T09:27:07.605Z,9.98
2023-03-06T09:29:40.374Z,10.25
2023-03-06T09:32:13.215Z,13.00
2023-03-06T09:34:46.118Z,11.23
2023-03-06T09:37:20.525Z,11.73
2023-03-06T09:39:53.297Z,13.23
2023-03-06T09:42:28.185Z,9.75
2023-03-06T09:47:48.865Z,9.80
2023-03-06T09:50:33.264Z,10.35
2023-03-06T09:53:32.829Z,11.60
2023-03-06T09:56:12.662Z,16.23
2023-03-06T09:58:50.799Z,11.68
2023-03-06T10:01:27.915Z,9.23
2023-03-06T10:04:12.433Z,9.05
2023-03-06T10:06:49.728Z,12.20
2023-03-06T10:09:28.170Z,11.77
2023-03-06T10:12:06.544Z,6.57
2023-03-06T10:14:47.759Z,11.10
2023-03-06T10:17:23.904Z,9.77
2023-03-06T10:22:32.959Z,8.40
2023-03-06T10:25:13.577Z,9.73
2023-03-06T10:27:49.126Z,10.60
2023-03-06T10:30:32.573Z,10.52
2023-03-06T10:33:10.342Z,12.05
2023-03-06T10:35:48.291Z,9.30
2023-03-06T10:38:23.364Z,12.50
2023-03-06T10:43:42.622Z,11.43
2023-03-06T10:46:28.375Z,12.00
2023-03-06T10:49:02.586Z,11.35
2023-03-06T10:51:35.723Z,12.93
2023-03-06T10:54:20.518Z,10.20
2023-03-06T10:56:54.676Z,9.65
2023-03-06T10:59:29.333Z,8.90
2023-03-06T11:02:26.699Z,10.30
2023-03-06T11:05:02.077Z,9.95
2023-03-06T11:07:53.435Z,7.00
2023-03-06T11:10:27.273Z,11.10
2023-03-06T11:13:06.092Z,10.43
2023-03-06T11:15:38.897Z,9.30
2023-03-06T11:18:31.106Z,8.18
2023-03-06T11:21:08.871Z,21.02
2023-03-06T11:23:44.710Z,9.82
2023-03-06T11:26:29.741Z,6.97
2023-03-06T11:29:37.510Z,9.73
2023-03-06T11:32:17.343Z,7.10
2023-03-06T11:34:54.080Z,7.18
2023-03-06T11:37:43.265Z,5.72
2023-03-06T11:40:21.088Z,6.75
2023-03-06T11:43:04.252Z,6.68
2023-03-06T11:45:45.866Z,7.78
2023-03-06T11:48:27.829Z,6.47
2023-03-06T11:51:07.877Z,7.30
2023-03-06T11:53:42.699Z,6.88
2023-03-06T11:56:28.872Z,7.55
2023-03-06T11:59:24.793Z,5.18
2023-03-06T12:02:08.003Z,6.05
2023-03-06T12:04:53.708Z,5.82
2023-03-06T12:07:33.862Z,5.22
2023-03-06T12:10:16.684Z,5.70
2023-03-06T12:13:15.854Z,4.47
2023-03-06T12:16:05.379Z,5.72
2023-03-06T12:18:51.055Z,4.75
2023-03-06T12:21:34.700Z,3.90
2023-03-06T12:24:25.663Z,4.03
2023-03-06T12:27:13.393Z,3.50
2023-03-06T12:30:01.541Z,4.57
2023-03-06T12:32:47.422Z,4.93
2023-03-06T12:35:48.365Z,4.78
2023-03-06T12:39:00.639Z,3.33
2023-03-06T12:41:43.819Z,4.20
2023-03-06T12:44:39.047Z,5.70
2023-03-06T12:47:16.157Z,3.67
2023-03-06T12:49:54.188Z,4.90
2023-03-06T12:52:31.966Z,3.88
2023-03-06T12:55:08.565Z,3.10
2023-03-06T12:57:45.555Z,4.55
2023-03-06T13:01:03.719Z,3.72
2023-03-06T13:03:51.081Z,4.90
2023-03-06T13:06:49.910Z,4.30
2023-03-06T13:09:35.460Z,3.65
2023-03-06T13:12:32.915Z,5.43
2023-03-06T13:15:30.936Z,4.72
2023-03-06T13:18:26.504Z,3.60
2023-03-06T13:20:59.875Z,3.90
2023-03-06T13:23:51.562Z,2.33
2023-03-06T13:27:01.003Z,2.28
2023-03-06T13:30:06.127Z,2.10
2023-03-06T13:32:39.031Z,10.20
2023-03-06T13:35:46.844Z,1.73
2023-03-06T13:38:31.663Z,1.55
2023-03-06T13:41:43.628Z,1.65
2023-03-06T13:44:52.178Z,1.95
2023-03-06T13:48:15.606Z,1.55
2023-03-06T13:50:45.259Z,1.55
2023-03-06T13:54:09.109Z,1.67
2023-03-06T13:57:20.358Z,1.48
2023-03-06T14:00:24.187Z,2.78
2023-03-06T14:03:36.033Z,3.17
2023-03-06T14:06:42.305Z,1.38
2023-03-06T14:09:24.860Z,1.50
2023-03-06T14:12:01.506Z,1.38
2023-03-06T14:14:43.406Z,2.38
2023-03-06T14:17:26.286Z,1.20
2023-03-06T14:20:02.584Z,2.15
2023-03-06T14:22:35.428Z,1.63
2023-03-06T14:25:17.054Z,0.95
2023-03-06T14:27:51.523Z,1.17
2023-03-06T14:30:26.933Z,1.00
2023-03-06T14:33:01.138Z,1.05
2023-03-06T14:35:34.241Z,1.25
2023-03-06T14:38:08.014Z,1.02
2023-03-06T14:40:44.761Z,1.23
2023-03-06T14:43:21.429Z,1.15
2023-03-06T14:45:57.200Z,1.38
2023-03-06T14:48:41.164Z,1.40
2023-03-06T14:51:19.949Z,2.90
2023-03-06T14:53:54.921Z,2.55
2023-03-06T14:56:28.690Z,3.05
2023-03-06T14:59:04.100Z,1.30
2023-03-06T15:01:39.610Z,1.38
2023-03-06T15:04:25.064Z,2.75
2023-03-06T15:07:00.148Z,1.20
2023-03-06T15:09:35.795Z,1.35
2023-03-06T15:12:30.502Z,1.40
2023-03-06T15:15:05.712Z,1.65
2023-03-06T15:17:41.076Z,1.30
2023-03-06T15:20:42.281Z,0.93
2023-03-06T15:23:20.837Z,0.95
2023-03-06T15:25:57.119Z,2.70
2023-03-06T15:28:35.921Z,1.77
2023-03-06T15:31:21.650Z,1.08
2023-03-06T15:36:37.236Z,1.95
2023-03-06T15:39:47.493Z,1.30
2023-03-06T15:42:22.302Z,4.35
2023-03-06T15:47:28.940Z,0.73
2023-03-06T15:50:01.824Z,0.52
2023-03-06T15:52:36.915Z,3.30
2023-03-06T15:55:12.145Z,2.25
2023-03-06T15:57:50.173Z,1.42
2023-03-06T16:00:28.321Z,0.80
2023-03-06T16:03:02.858Z,1.85
2023-03-06T16:05:35.723Z,1.65
2023-03-06T16:08:10.824Z,3.03
2023-03-06T16:10:45.339Z,0.85
2023-03-06T16:13:26.713Z,1.27
2023-03-06T16:15:59.537Z,2.15
2023-03-06T16:18:32.311Z,2.03
2023-03-06T16:21:06.561Z,1.50
2023-03-06T16:23:41.138Z,1.15
2023-03-06T16:26:20.386Z,2.10
2023-03-06T16:28:53.212Z,1.67
2023-03-06T16:31:26.002Z,2.45
2023-03-06T16:33:58.902Z,1.40
2023-03-06T16:36:32.464Z,2.72
2023-03-06T16:39:07.365Z,2.83
2023-03-06T16:41:40.235Z,2.30
2023-03-06T16:44:13.428Z,2.45
2023-03-06T16:46:48.408Z,2.03
2023-03-06T16:49:23.573Z,2.10
2023-03-06T16:51:56.753Z,3.78
2023-03-06T16:54:30.937Z,6.40
2023-03-06T16:57:03.853Z,5.53
2023-03-06T16:59:36.970Z,8.80
2023-03-06T17:02:10.845Z,6.70
2023-03-06T17:04:43.742Z,7.85
2023-03-06T17:07:16.556Z,8.80
2023-03-06T17:09:50.816Z,11.65
2023-03-06T17:12:23.671Z,9.18
2023-03-06T17:14:56.667Z,10.00
2023-03-06T17:17:29.690Z,9.10
2023-03-06T17:20:03.202Z,8.90
2023-03-06T17:22:36.931Z,8.55
2023-03-06T17:25:11.519Z,7.28
2023-03-06T17:27:44.430Z,7.15
2023-03-06T17:30:17.554Z,6.40
2023-03-06T17:32:50.771Z,7.97
2023-03-06T17:35:23.566Z,6.63
2023-03-06T17:37:58.002Z,7.85
2023-03-06T17:40:34.521Z,7.97
2023-03-06T17:43:07.411Z,8.75
2023-03-06T17:45:40.306Z,8.70
2023-03-06T17:48:13.097Z,8.40
2023-03-06T17:50:53.900Z,7.63
2023-03-06T17:53:27.571Z,10.45
2023-03-06T17:56:03.736Z,9.77
2023-03-06T17:58:36.907Z,8.30
2023-03-06T18:01:13.627Z,9.85
2023-03-06T18:03:48.478Z,11.82
2023-03-06T18:06:22.147Z,10.65
2023-03-06T18:08:58.353Z,11.07
2023-03-06T18:11:32.979Z,14.15
2023-03-06T18:14:05.856Z,17.02
2023-03-06T18:16:38.744Z,16.42
2023-03-06T18:19:12.222Z,16.77
2023-03-06T18:21:47.206Z,17.35
2023-03-06T18:24:20.047Z,21.63
2023-03-06T18:26:54.267Z,17.58
2023-03-06T18:29:27.096Z,18.23
2023-03-06T18:32:01.897Z,19.17
2023-03-06T18:34:35.079Z,19.80
2023-03-06T18:37:07.934Z,17.80
2023-03-06T18:39:40.895Z,21.90
2023-03-06T18:42:15.038Z,18.58
2023-03-06T18:44:48.786Z,17.50
2023-03-06T18:47:22.207Z,21.42
2023-03-06T18:49:55.993Z,21.33
2023-03-06T18:52:28.794Z,24.00
2023-03-06T18:55:01.850Z,20.92
2023-03-06T18:57:36.136Z,21.23
2023-03-06T19:00:10.042Z,23.38
2023-03-06T19:02:42.827Z,24.13
2023-03-06T19:05:15.662Z,22.08
2023-03-06T19:07:48.465Z,19.75
2023-03-06T19:10:21.293Z,23.33
2023-03-06T19:12:55.430Z,21.63
2023-03-06T19:15:28.207Z,24.53
2023-03-06T19:18:01.575Z,22.83
2023-03-06T19:20:34.658Z,25.33
2023-03-06T19:23:08.242Z,21.25
2023-03-06T19:25:41.319Z,25.05
2023-03-06T19:28:15.926Z,20.23
2023-03-06T19:30:48.714Z,19.38
2023-03-06T19:33:21.627Z,25.35
2023-03-06T19:35:54.504Z,26.65
2023-03-06T19:38:27.395Z,22.10
2023-03-06T19:41:00.941Z,22.75
2023-03-06T19:43:35.383Z,19.63
2023-03-06T19:46:12.541Z,27.70
2023-03-06T19:48:45.686Z,23.60
2023-03-06T19:51:18.560Z,26.00
2023-03-06T19:53:51.475Z,23.25
2023-03-06T19:56:26.712Z,25.88
2023-03-06T19:59:00.967Z,28.02
2023-03-06T20:01:34.363Z,27.55
2023-03-06T20:04:07.331Z,23.23
2023-03-06T20:06:40.628Z,26.10
2023-03-06T20:09:13.654Z,18.95
2023-03-06T20:11:46.461Z,27.55
2023-03-06T20:14:20.994Z,26.35
2023-03-06T20:16:54.218Z,17.05
2023-03-06T20:19:27.034Z,25.08
2023-03-06T20:21:59.869Z,29.50
2023-03-06T20:24:32.837Z,25.63
2023-03-06T20:27:06.027Z,24.23
2023-03-06T20:29:43.207Z,25.40
2023-03-06T20:32:16.393Z,31.25
2023-03-06T20:34:49.259Z,25.52
2023-03-06T20:37:22.142Z,26.52
2023-03-06T20:39:55.054Z,25.60
2023-03-06T20:42:28.107Z,22.23
2023-03-06T20:45:02.689Z,24.85
2023-03-06T20:47:35.661Z,27.53
2023-03-06T20:50:09.226Z,20.98
2023-03-06T20:52:42.381Z,23.35
2023-03-06T20:55:15.386Z,25.80
2023-03-06T20:57:50.174Z,23.30
2023-03-06T21:00:24.311Z,20.55
2023-03-06T21:02:57.182Z,18.95
2023-03-06T21:05:29.982Z,21.00
2023-03-06T21:08:02.806Z,21.83
2023-03-06T21:10:37.812Z,19.50
2023-03-06T21:15:47.730Z,18.77
2023-03-06T21:18:21.329Z,22.25
2023-03-06T21:20:54.283Z,22.27
2023-03-06T21:23:27.251Z,23.60
2023-03-06T21:26:00.667Z,21.65
2023-03-06T21:28:33.688Z,20.45
2023-03-06T21:31:09.432Z,25.15
2023-03-06T21:33:42.675Z,24.10
2023-03-06T21:36:16.121Z,20.95
2023-03-06T21:38:50.060Z,25.52
2023-03-06T21:41:25.062Z,21.30
2023-03-06T21:46:33.346Z,20.75
2023-03-06T21:49:06.738Z,20.33
2023-03-06T21:51:39.719Z,23.25
2023-03-06T21:54:12.994Z,24.77
2023-03-06T21:56:45.869Z,26.40
2023-03-06T21:59:18.669Z,27.45
2023-03-06T22:01:52.921Z,26.98
2023-03-06T22:04:25.872Z,29.10
2023-03-06T22:06:58.672Z,24.38
2023-03-06T22:09:31.466Z,23.63
2023-03-06T22:12:04.710Z,30.33
2023-03-06T22:14:37.896Z,25.25
2023-03-06T22:17:12.037Z,26.02
2023-03-06T22:19:44.821Z,29.80
2023-03-06T22:22:17.699Z,29.95
2023-03-06T22:24:50.459Z,30.65
2023-03-06T22:27:23.420Z,19.58
2023-03-06T22:29:56.244Z,24.58
2023-03-06T22:32:30.417Z,26.92
2023-03-06T22:35:03.463Z,30.75
2023-03-06T22:37:36.316Z,32.17
2023-03-06T22:40:10.534Z,30.55
2023-03-06T22:42:43.411Z,27.23
2023-03-06T22:45:16.638Z,29.73
2023-03-06T22:47:53.390Z,29.90
2023-03-06T22:50:28.092Z,26.00
2023-03-06T22:53:01.107Z,26.40
2023-03-06T22:55:35.771Z,22.27
2023-03-06T22:58:08.561Z,31.98
2023-03-06T23:00:41.391Z,34.08
2023-03-06T23:03:15.729Z,28.08
2023-03-06T23:05:48.483Z,31.37
2023-03-06T23:08:21.876Z,31.67
2023-03-06T23:10:54.686Z,27.88
2023-03-06T23:13:46.670Z,35.80
2023-03-06T23:16:38.412Z,26.98
2023-03-06T23:19:31.725Z,32.42
2023-03-06T23:22:22.836Z,38.08
2023-03-06T23:25:14.306Z,33.15
2023-03-06T23:27:50.096Z,34.38
2023-03-06T23:30:24.357Z,36.17
2023-03-06T23:32:57.478Z,39.67
2023-03-06T23:35:33.951Z,40.13
2023-03-06T23:38:07.134Z,39.60
2023-03-06T23:40:40.674Z,43.17
2023-03-06T23:43:13.514Z,35.40
2023-03-06T23:45:53.525Z,41.83
2023-03-06T23:48:27.677Z,27.17
2023-03-06T23:51:05.240Z,38.17
2023-03-06T23:53:38.010Z,40.40
2023-03-06T23:56:11.120Z,44.45
2023-03-06T23:58:45.370Z,30.80
